Check out our new BloomSky Weather System.

Active alerts

Fort Bend, TX
  Details for Fort Bend, TX River Flood Warning  +1 additional alert
Houston, TX
  Details for Houston, TX Wind Advisory
Galveston, TX
  Details for Galveston, TX Wind Advisory


Thunder radar  blitzortung!


Rain radar more information rain snow radar


Visit our other weather sites:

Template documentation
and downloads

And another site



Weather Underground History page Text

Daily Summary for January 12, 2018 Units:  Metric    English   Both
« Previous Day
Next Day »
Daily Weekly Monthly Yearly Custom
  High: Low: Average:
Temperature: -17.8 °C -0.8 °C 3.6 °C
Dew Point: -17.8 °C -6.7 °C -4.7 °C
Humidity: Humidity % 40 % 55 %
Wind Speed: 0 km/h 0 km/h 7.7 km/h
Wind Gust: 0 km/h - -
Wind:- - NW
Pressure: 0 hPa 1018.2 hPa -
Precipitation: 0 mm    
Historical Graphs
 
 
Tabular Data for January 12, 2018
Time Temperature Dew Point Pressure Wind Wind Speed Wind Gust Humidity Rainfall Rate (Hourly)
-17.8 °C -17.8 °C 0 hPa Calm     Humidity % 0 mm
00:12 3.8 °C -3.7 °C 1018.5 hPa NW 27.4 km/h 37 km/h 58 % 0 mm
00:20 3.7 °C -4 °C 1018.2 hPa NNW 12.9 km/h 30.6 km/h 57 % 0 mm
00:25 3.6 °C -3.9 °C 1018.5 hPa NNW 6.4 km/h 33.8 km/h 58 % 0 mm
00:32 3.5 °C -4 °C 1018.5 hPa West 11.3 km/h 33.8 km/h 58 % 0 mm
00:49 3.3 °C -4.4 °C 1018.5 hPa NNW 9.7 km/h 30.6 km/h 57 % 0 mm
00:54 3.2 °C -4.3 °C 1018.5 hPa NNW 14.5 km/h 27.4 km/h 58 % 0 mm
01:09 3.1 °C -4.6 °C 1018.8 hPa NW 12.9 km/h 27.4 km/h 57 % 0 mm
01:17 2.9 °C -4.6 °C 1018.8 hPa North 11.3 km/h 27.4 km/h 58 % 0 mm
01:25 2.9 °C -4.6 °C 1018.8 hPa NNW 4.8 km/h 29 km/h 58 % 0 mm
01:30 2.8 °C -4.6 °C 1018.5 hPa NW 8 km/h 29 km/h 58 % 0 mm
01:36 2.7 °C -4.7 °C 1018.5 hPa NW 8 km/h 30.6 km/h 58 % 0 mm
01:45 2.7 °C -4.5 °C 1018.8 hPa WNW 8 km/h 30.6 km/h 59 % 0 mm
01:51 2.6 °C -5.1 °C 1018.8 hPa NW 11.3 km/h 24.1 km/h 57 % 0 mm
01:56 2.6 °C -5.1 °C 1018.8 hPa NW 9.7 km/h 35.4 km/h 57 % 0 mm
02:02 2.4 °C -5 °C 1018.8 hPa West 14.5 km/h 35.4 km/h 58 % 0 mm
02:10 2.4 °C -5.3 °C 1019.2 hPa NW 8 km/h 35.4 km/h 57 % 0 mm
02:15 2.3 °C -5.1 °C 1019.2 hPa NW 4.8 km/h 30.6 km/h 58 % 0 mm
02:22 2.2 °C -5 °C 1018.8 hPa NW 4.8 km/h 30.6 km/h 59 % 0 mm
02:27 2.2 °C -5 °C 1018.8 hPa NNW 12.9 km/h 25.7 km/h 59 % 0 mm
02:35 2.1 °C -5.1 °C 1019.2 hPa NNW 16.1 km/h 25.7 km/h 59 % 0 mm
02:54 1.8 °C -5.1 °C 1019.2 hPa NW 4.8 km/h 24.1 km/h 60 % 0 mm
02:59 1.8 °C -5.1 °C 1019.2 hPa NNW 11.3 km/h 24.1 km/h 60 % 0 mm
03:12 1.7 °C -5.2 °C 1019.5 hPa NE 12.9 km/h 25.7 km/h 60 % 0 mm
03:17 1.7 °C -5.2 °C 1019.5 hPa NNW 12.9 km/h 25.7 km/h 60 % 0 mm
03:23 1.6 °C -5.1 °C 1019.5 hPa NNW 11.3 km/h 22.5 km/h 61 % 0 mm
03:30 1.6 °C -5.3 °C 1019.9 hPa WSW 8 km/h 25.7 km/h 60 % 0 mm
03:43 1.5 °C -5.2 °C 1020.2 hPa NNW 19.3 km/h 25.7 km/h 61 % 0 mm
03:48 1.4 °C -5.3 °C 1019.9 hPa NW 11.3 km/h 24.1 km/h 61 % 0 mm
03:53 1.3 °C -5.4 °C 1020.2 hPa NW 6.4 km/h 22.5 km/h 61 % 0 mm
04:00 1.3 °C -5.4 °C 1019.9 hPa NNW 17.7 km/h 19.3 km/h 61 % 0 mm
04:05 1.2 °C -5.5 °C 1019.9 hPa NNW 8 km/h 20.9 km/h 61 % 0 mm
04:19 0.9 °C -5.8 °C 1020.2 hPa NNW 6.4 km/h 20.9 km/h 61 % 0 mm
04:35 0.8 °C -5.9 °C 1020.5 hPa NNW 11.3 km/h 24.1 km/h 61 % 0 mm
04:44 0.7 °C -5.7 °C 1020.5 hPa NNW 3.2 km/h 24.1 km/h 62 % 0 mm
04:49 0.6 °C -5.8 °C 1020.5 hPa NW 17.7 km/h 24.1 km/h 62 % 0 mm
04:55 0.6 °C -6.1 °C 1020.9 hPa NNW 8 km/h 27.4 km/h 61 % 0 mm
05:07 0.4 °C -6.2 °C 1020.9 hPa NNW 14.5 km/h 35.4 km/h 61 % 0 mm
05:18 0.3 °C -6.1 °C 1021.2 hPa NW 12.9 km/h 24.1 km/h 62 % 0 mm
05:24 0.2 °C -6.4 °C 1021.2 hPa NNW 3.2 km/h 24.1 km/h 61 % 0 mm
05:30 0.2 °C -6.4 °C 1021.6 hPa NNW 20.9 km/h 22.5 km/h 61 % 0 mm
05:35 0.2 °C -6.2 °C 1021.6 hPa WNW 3.2 km/h 24.1 km/h 62 % 0 mm
05:48 0 °C -6.2 °C 1021.6 hPa North 14.5 km/h 35.4 km/h 63 % 0 mm
05:55 -0.1 °C -6.3 °C 1021.6 hPa WNW 4.8 km/h 35.4 km/h 63 % 0 mm
06:04 -0.1 °C -6.5 °C 1021.9 hPa NNW 8 km/h 27.4 km/h 62 % 0 mm
06:24 -0.3 °C -6.5 °C 1021.9 hPa NW 6.4 km/h 24.1 km/h 63 % 0 mm
06:33 -0.3 °C -6.5 °C 1022.2 hPa WNW 6.4 km/h 22.5 km/h 63 % 0 mm
07:22 -0.8 °C -6.6 °C 1022.9 hPa NNW 11.3 km/h 20.9 km/h 65 % 0 mm
07:39 -0.7 °C -6.7 °C 1022.9 hPa NNW 3.2 km/h 24.1 km/h 64 % 0 mm
07:44 -0.7 °C -6.7 °C 1022.9 hPa NNW 3.2 km/h 24.1 km/h 64 % 0 mm
07:52 -0.7 °C -6.7 °C 1022.9 hPa NW 6.4 km/h 24.1 km/h 64 % 0 mm
08:07 -0.5 °C -6.5 °C 1022.9 hPa NW 8 km/h 17.7 km/h 64 % 0 mm
08:30 -0.1 °C -6.5 °C 1023.6 hPa NW 11.3 km/h 19.3 km/h 62 % 0 mm
08:42 0.1 °C -6.5 °C 1023.9 hPa NW 9.7 km/h 25.7 km/h 61 % 0 mm
08:48 0.3 °C -6.3 °C 1023.9 hPa NW 9.7 km/h 25.7 km/h 61 % 0 mm
08:57 0.3 °C -6.6 °C 1024.3 hPa NW 8 km/h 25.7 km/h 60 % 0 mm
09:05 0.6 °C -6.7 °C 1024.6 hPa NW 6.4 km/h 25.7 km/h 58 % 0 mm
09:10 0.6 °C -6.5 °C 1024.3 hPa North 6.4 km/h 24.1 km/h 59 % 0 mm
09:20 0.9 °C -6.2 °C 1024.3 hPa NNW 14.5 km/h 19.3 km/h 59 % 0 mm
09:26 1.2 °C -6.2 °C 1024.3 hPa NNW 8 km/h 19.3 km/h 58 % 0 mm
09:42 1.3 °C -6.1 °C 1024.3 hPa North 1.6 km/h 29 km/h 58 % 0 mm
09:48 1.7 °C -5.9 °C 1024.3 hPa NNW 16.1 km/h 29 km/h 57 % 0 mm
10:27 2.7 °C -5.7 °C 1024.6 hPa NNW 14.5 km/h 27.4 km/h 54 % 0 mm
10:45 3.2 °C -5.5 °C 1024.6 hPa NW 8 km/h 24.1 km/h 53 % 0 mm
10:55 3.7 °C -4.8 °C 1024.6 hPa NNW 9.7 km/h 27.4 km/h 54 % 0 mm
11:00 3.8 °C -5.2 °C 1024.6 hPa West 11.3 km/h 27.4 km/h 52 % 0 mm
11:05 4 °C -5.2 °C 1024.6 hPa NNW 8 km/h 24.1 km/h 51 % 0 mm
11:12 4.2 °C -4.8 °C 1024.6 hPa West 8 km/h 24.1 km/h 52 % 0 mm
11:17 4.3 °C -4.9 °C 1024.6 hPa NNW 17.7 km/h 22.5 km/h 51 % 0 mm
11:23 4.5 °C -4.8 °C 1024.6 hPa North 9.7 km/h 22.5 km/h 51 % 0 mm
11:29 4.6 °C -5.2 °C 1024.6 hPa NNW 12.9 km/h 22.5 km/h 49 % 0 mm
11:34 4.7 °C -5.1 °C 1024.6 hPa NW 9.7 km/h 20.9 km/h 49 % 0 mm
11:41 4.9 °C -4.9 °C 1024.3 hPa West 3.2 km/h 25.7 km/h 49 % 0 mm
11:52 5 °C -4.6 °C 1024.3 hPa WSW 11.3 km/h 25.7 km/h 50 % 0 mm
12:03 5.5 °C -4.4 °C 1023.9 hPa NNW 9.7 km/h 24.1 km/h 49 % 0 mm
12:10 5.8 °C -4.1 °C 1023.6 hPa West 11.3 km/h 20.9 km/h 49 % 0 mm
12:24 5.7 °C -4.5 °C 1023.6 hPa NW 11.3 km/h 29 km/h 48 % 0 mm
12:37 6.1 °C -3.8 °C 1023.2 hPa West 3.2 km/h 22.5 km/h 49 % 0 mm
12:50 6.3 °C -3.9 °C 1023.2 hPa WNW 8 km/h 20.9 km/h 48 % 0 mm
12:58 6.5 °C -4 °C 1022.9 hPa NNW 3.2 km/h 20.9 km/h 47 % 0 mm
13:22 7.1 °C -3.7 °C 1022.2 hPa NNW 12.9 km/h 27.4 km/h 46 % 0 mm
13:45 7.2 °C -3.9 °C 1022.2 hPa WNW 11.3 km/h 25.7 km/h 45 % 0 mm
13:55 7.4 °C -3.8 °C 1022.2 hPa North 6.4 km/h 27.4 km/h 45 % 0 mm
14:00 7.6 °C -3.3 °C 1022.2 hPa WNW 8 km/h 27.4 km/h 46 % 0 mm
14:07 7.7 °C -3.8 °C 1022.2 hPa NW 11.3 km/h 20.9 km/h 44 % 0 mm
14:12 7.7 °C -3.5 °C 1022.2 hPa NW 8 km/h 20.9 km/h 45 % 0 mm
14:30 7.8 °C -4 °C 1022.2 hPa NNW 11.3 km/h 25.7 km/h 43 % 0 mm
14:42 8.1 °C -3.7 °C 1021.9 hPa NNW 16.1 km/h 27.4 km/h 43 % 0 mm
14:52 8.3 °C -3.2 °C 1021.9 hPa NW 6.4 km/h 27.4 km/h 44 % 0 mm
15:04 8.4 °C -4.1 °C 1021.9 hPa NNW 16.1 km/h 19.3 km/h 41 % 0 mm
15:11 8.3 °C -3.9 °C 1022.2 hPa WNW 11.3 km/h 25.7 km/h 42 % 0 mm
15:18 8.5 °C -3.7 °C 1022.2 hPa North 16.1 km/h 25.7 km/h 42 % 0 mm
15:27 8.4 °C -3.5 °C 1022.2 hPa NW 1.6 km/h 19.3 km/h 43 % 0 mm
15:37 8.4 °C -3.8 °C 1022.2 hPa NNW 9.7 km/h 24.1 km/h 42 % 0 mm
15:57 8.5 °C -3.7 °C 1022.2 hPa NNW 4.8 km/h 22.5 km/h 42 % 0 mm
16:07 8.7 °C -3.8 °C 1022.2 hPa NNW 17.7 km/h 19.3 km/h 41 % 0 mm
16:13 8.5 °C -4 °C 1022.2 hPa NNW 11.3 km/h 22.5 km/h 41 % 0 mm
16:23 8.6 °C -4.2 °C 1022.6 hPa NNW 14.5 km/h 22.5 km/h 40 % 0 mm
16:37 8.5 °C -3.7 °C 1022.6 hPa NNW 8 km/h 17.7 km/h 42 % 0 mm
16:49 8.4 °C -3.5 °C 1022.9 hPa NNW 3.2 km/h 19.3 km/h 43 % 0 mm
16:56 8.4 °C -3.5 °C 1022.9 hPa NW 11.3 km/h 14.5 km/h 43 % 0 mm
17:06 8.2 °C -4 °C 1023.2 hPa NNE 4.8 km/h 16.1 km/h 42 % 0 mm
17:12 8 °C -3.8 °C 1023.2 hPa NNW 8 km/h 16.1 km/h 43 % 0 mm
17:29 7.6 °C -3.9 °C 1023.2 hPa NNW 8 km/h 9.7 km/h 44 % 0 mm
17:41 7.3 °C -3.6 °C 1023.6 hPa NW 3.2 km/h 11.3 km/h 46 % 0 mm
17:49 7.2 °C -3.4 °C 1023.6 hPa NW 4.8 km/h 9.7 km/h 47 % 0 mm
17:56 7 °C -3.5 °C 1023.9 hPa NNW 3.2 km/h 9.7 km/h 47 % 0 mm
18:05 6.8 °C -3.5 °C 1023.9 hPa NNW 1.6 km/h 9.7 km/h 48 % 0 mm
18:15 6.5 °C -3.2 °C 1024.3 hPa Calm   9.7 km/h 50 % 0 mm
18:27 6.1 °C -3.3 °C 1023.9 hPa NNW 1.6 km/h 6.4 km/h 51 % 0 mm
18:32 6 °C -3.1 °C 1024.3 hPa Calm   6.4 km/h 52 % 0 mm
18:38 5.9 °C -3.2 °C 1024.3 hPa NNW 1.6 km/h 4.8 km/h 52 % 0 mm
18:49 5.8 °C -3 °C 1024.6 hPa NNW 3.2 km/h 4.8 km/h 53 % 0 mm
18:54 5.8 °C -3 °C 1024.6 hPa NW 1.6 km/h 4.8 km/h 53 % 0 mm
19:06 5.6 °C -3 °C 1024.6 hPa NW 1.6 km/h 4.8 km/h 54 % 0 mm
19:26 4.9 °C -3.1 °C 1024.9 hPa Calm   1.6 km/h 56 % 0 mm
19:33 4.9 °C -2.9 °C 1024.9 hPa Calm   3.2 km/h 57 % 0 mm
19:45 4.5 °C -2.8 °C 1025.3 hPa Calm   1.6 km/h 59 % 0 mm
20:02 4.2 °C -2.7 °C 1025.6 hPa Calm   1.6 km/h 61 % 0 mm
20:08 4.1 °C -2.7 °C 1025.6 hPa NW 1.6 km/h 1.6 km/h 61 % 0 mm
20:13 4.1 °C -2.5 °C 1025.6 hPa NW 1.6 km/h 3.2 km/h 62 % 0 mm
20:18 4 °C -2.8 °C 1026 hPa NW 1.6 km/h 4.8 km/h 61 % 0 mm
20:33 4.1 °C -3.2 °C 1026 hPa NNW 3.2 km/h 4.8 km/h 59 % 0 mm
20:40 4.1 °C -3.2 °C 1026 hPa Calm   6.4 km/h 59 % 0 mm
20:47 4 °C -3.3 °C 1026.3 hPa Calm   6.4 km/h 59 % 0 mm
21:01 3.9 °C -3.4 °C 1026.6 hPa NW 1.6 km/h 4.8 km/h 59 % 0 mm
21:10 3.8 °C -3.5 °C 1026.6 hPa NW 1.6 km/h 8 km/h 59 % 0 mm
21:15 3.8 °C -3.5 °C 1027 hPa Calm   8 km/h 59 % 0 mm
21:37 3.4 °C -3.4 °C 1027 hPa Calm   4.8 km/h 61 % 0 mm
21:42 3.3 °C -3.5 °C 1027.3 hPa Calm   4.8 km/h 61 % 0 mm
21:58 3.1 °C -3.5 °C 1027.7 hPa NNW 1.6 km/h 3.2 km/h 62 % 0 mm
22:04 2.9 °C -3.7 °C 1027.7 hPa NNW 1.6 km/h 3.2 km/h 62 % 0 mm
22:23 3.1 °C -3.7 °C 1027.7 hPa NNW 1.6 km/h 6.4 km/h 61 % 0 mm
22:55 2.9 °C -4.1 °C 1028 hPa North 6.4 km/h 8 km/h 60 % 0 mm
23:02 2.9 °C -4.1 °C 1028 hPa Calm   9.7 km/h 60 % 0 mm
23:12 2.8 °C -4.2 °C 1028.3 hPa NNW 3.2 km/h 9.7 km/h 60 % 0 mm
23:27 2.8 °C -4.2 °C 1028.3 hPa North 6.4 km/h 8 km/h 60 % 0 mm
23:42 2.7 °C -4.3 °C 1028.7 hPa NNW 1.6 km/h 9.7 km/h 60 % 0 mm
23:47 2.6 °C -4.4 °C 1028.7 hPa NW 1.6 km/h 8 km/h 60 % 0 mm
23:56 2.5 °C -4.3 °C 1028.7 hPa Calm   8 km/h 61 % 0 mm
Spring, Texas: Villages of Bridgestone
Compliments of Weather Underground - 2 mb

Script developed by  Jim McMurry - jmcmurry@mwt.net Adapted for the template by  Wim van der Kuil - Leuven-Template.eu

You find our weather info also at:

UK Metoffice

WeatherCloud

Weather Underground

Mid-South Weather Network

AWEKAS

Citizen Weather Observer Program (CWOP)

HAMweather, WeatherForYou, PWS Weather

Equipment we use:

Weather-station
Davis Vantage Vue

Weather-program
Meteohub

Weather-server
Debian 7.9 x86 (Guest)

Provider
DreamHost

Davis Vantage Vue

Meteohub

Debian 7.9 x86 (Guest)

DreamHost